Terminal Aerodrome Forecast
Issued by NWS

Home | Current Version | Previous Version | Text Only | Print | Product List | Glossary On
Versions: 1 2 3 4 5 6 7 8 9 10 11 12
000
FTUS45 KREV 270520
TAFMMH
TAF
KMMH 270520Z 2706/2806 27005KT P6SM SCT060
     FM271800 12005KT P6SM SCT060
     FM272100 26010G20KT P6SM VCTS SCT060CB=

USA.gov is the U.S. government's official web portal to all federal, state and local government web resources and services.